sensor_id;sensor_type;location;lat;lon;timestamp;P1;durP1;ratioP1;P2;durP2;ratioP2
63114;SDS011;49208;50.874;6.466;2023-02-28T07:03:14;6.10;;;2.90;;
63114;SDS011;49208;50.874;6.466;2023-02-28T07:05:40;8.18;;;3.75;;
63114;SDS011;49208;50.874;6.466;2023-02-28T07:08:06;7.13;;;3.28;;
63114;SDS011;49208;50.874;6.466;2023-02-28T07:10:32;8.50;;;3.90;;
63114;SDS011;49208;50.874;6.466;2023-02-28T07:12:58;7.93;;;3.90;;
63114;SDS011;49208;50.874;6.466;2023-02-28T07:15:24;8.52;;;4.03;;
63114;SDS011;49208;50.874;6.466;2023-02-28T07:17:50;7.63;;;3.83;;
63114;SDS011;49208;50.874;6.466;2023-02-28T07:20:15;8.07;;;3.38;;
63114;SDS011;49208;50.874;6.466;2023-02-28T07:22:41;6.78;;;3.40;;
63114;SDS011;49208;50.874;6.466;2023-02-28T07:25:07;6.70;;;3.50;;
63114;SDS011;49208;50.874;6.466;2023-02-28T07:27:33;6.88;;;4.28;;
63114;SDS011;49208;50.874;6.466;2023-02-28T07:29:59;5.95;;;3.33;;
63114;SDS011;49208;50.874;6.466;2023-02-28T07:32:26;8.20;;;3.53;;
63114;SDS011;49208;50.874;6.466;2023-02-28T07:34:52;4.43;;;2.67;;
63114;SDS011;49208;50.874;6.466;2023-02-28T07:37:18;6.13;;;3.78;;
63114;SDS011;49208;50.874;6.466;2023-02-28T07:39:43;6.07;;;3.33;;
63114;SDS011;49208;50.874;6.466;2023-02-28T07:42:09;6.88;;;3.45;;
63114;SDS011;49208;50.874;6.466;2023-02-28T07:47:05;6.55;;;3.80;;
63114;SDS011;49208;50.874;6.466;2023-02-28T07:49:35;4.78;;;3.42;;
63114;SDS011;49208;50.874;6.466;2023-02-28T07:52:02;5.53;;;3.03;;
63114;SDS011;49208;50.874;6.466;2023-02-28T07:54:29;8.48;;;3.83;;
63114;SDS011;49208;50.874;6.466;2023-02-28T07:56:54;7.03;;;3.38;;
63114;SDS011;49208;50.874;6.466;2023-02-28T07:59:19;5.60;;;3.33;;
63114;SDS011;49208;50.874;6.466;2023-02-28T08:01:45;6.20;;;3.50;;
63114;SDS011;49208;50.874;6.466;2023-02-28T08:04:10;6.78;;;3.33;;
63114;SDS011;49208;50.874;6.466;2023-02-28T08:06:35;5.80;;;3.28;;
63114;SDS011;49208;50.874;6.466;2023-02-28T08:09:01;8.95;;;3.58;;
63114;SDS011;49208;50.874;6.466;2023-02-28T08:11:27;6.60;;;2.92;;
63114;SDS011;49208;50.874;6.466;2023-02-28T08:13:52;6.53;;;3.65;;
63114;SDS011;49208;50.874;6.466;2023-02-28T08:16:17;5.50;;;3.10;;
63114;SDS011;49208;50.874;6.466;2023-02-28T08:18:47;7.45;;;2.80;;
63114;SDS011;49208;50.874;6.466;2023-02-28T08:21:14;6.38;;;3.10;;
63114;SDS011;49208;50.874;6.466;2023-02-28T08:23:40;5.30;;;2.90;;
63114;SDS011;49208;50.874;6.466;2023-02-28T08:26:05;5.05;;;2.90;;
63114;SDS011;49208;50.874;6.466;2023-02-28T08:28:31;7.45;;;3.78;;
63114;SDS011;49208;50.874;6.466;2023-02-28T08:30:57;4.97;;;3.30;;
63114;SDS011;49208;50.874;6.466;2023-02-28T08:33:22;5.53;;;3.17;;
63114;SDS011;49208;50.874;6.466;2023-02-28T08:35:52;5.18;;;3.40;;
63114;SDS011;49208;50.874;6.466;2023-02-28T08:38:21;5.55;;;3.15;;
63114;SDS011;49208;50.874;6.466;2023-02-28T08:40:46;7.45;;;2.88;;
63114;SDS011;49208;50.874;6.466;2023-02-28T08:43:12;5.85;;;3.47;;
63114;SDS011;49208;50.874;6.466;2023-02-28T08:45:37;8.30;;;3.38;;
63114;SDS011;49208;50.874;6.466;2023-02-28T08:48:03;5.15;;;3.10;;
63114;SDS011;49208;50.874;6.466;2023-02-28T08:50:28;5.97;;;2.90;;
63114;SDS011;49208;50.874;6.466;2023-02-28T08:52:54;7.35;;;2.97;;
63114;SDS011;49208;50.874;6.466;2023-02-28T08:55:19;6.45;;;2.78;;
63114;SDS011;49208;50.874;6.466;2023-02-28T08:57:44;7.10;;;2.90;;
63114;SDS011;49208;50.874;6.466;2023-02-28T09:00:10;6.00;;;2.90;;
63114;SDS011;49208;50.874;6.466;2023-02-28T09:02:38;5.05;;;2.55;;
63114;SDS011;49208;50.874;6.466;2023-02-28T09:05:05;3.83;;;2.33;;
63114;SDS011;49208;50.874;6.466;2023-02-28T09:07:30;4.28;;;2.60;;
63114;SDS011;49208;50.874;6.466;2023-02-28T09:09:56;4.28;;;2.42;;
63114;SDS011;49208;50.874;6.466;2023-02-28T09:12:25;5.23;;;2.57;;
63114;SDS011;49208;50.874;6.466;2023-02-28T09:14:52;3.53;;;1.92;;
63114;SDS011;49208;50.874;6.466;2023-02-28T09:17:18;3.20;;;1.80;;
63114;SDS011;49208;50.874;6.466;2023-02-28T09:19:44;13.07;;;2.40;;
63114;SDS011;49208;50.874;6.466;2023-02-28T09:22:10;6.68;;;2.30;;
63114;SDS011;49208;50.874;6.466;2023-02-28T09:24:37;4.00;;;2.05;;
63114;SDS011;49208;50.874;6.466;2023-02-28T09:27:03;3.87;;;2.17;;
63114;SDS011;49208;50.874;6.466;2023-02-28T09:29:29;4.22;;;1.98;;
63114;SDS011;49208;50.874;6.466;2023-02-28T09:31:55;6.82;;;1.85;;
63114;SDS011;49208;50.874;6.466;2023-02-28T09:34:23;3.45;;;1.80;;
63114;SDS011;49208;50.874;6.466;2023-02-28T09:36:49;3.63;;;1.80;;
63114;SDS011;49208;50.874;6.466;2023-02-28T09:39:15;3.42;;;1.83;;
63114;SDS011;49208;50.874;6.466;2023-02-28T09:41:44;9.10;;;2.63;;
63114;SDS011;49208;50.874;6.466;2023-02-28T09:44:35;6.30;;;2.00;;
63114;SDS011;49208;50.874;6.466;2023-02-28T09:47:07;3.75;;;1.90;;
63114;SDS011;49208;50.874;6.466;2023-02-28T09:49:40;3.60;;;1.67;;
63114;SDS011;49208;50.874;6.466;2023-02-28T09:52:10;3.40;;;2.00;;
63114;SDS011;49208;50.874;6.466;2023-02-28T09:54:38;3.10;;;1.60;;
63114;SDS011;49208;50.874;6.466;2023-02-28T10:00:06;3.30;;;1.75;;
63114;SDS011;49208;50.874;6.466;2023-02-28T10:05:19;3.45;;;1.60;;
63114;SDS011;49208;50.874;6.466;2023-02-28T10:10:44;3.22;;;1.60;;
63114;SDS011;49208;50.874;6.466;2023-02-28T10:13:22;4.50;;;1.65;;
63114;SDS011;49208;50.874;6.466;2023-02-28T10:16:10;3.67;;;1.50;;
63114;SDS011;49208;50.874;6.466;2023-02-28T10:18:41;5.88;;;1.98;;
63114;SDS011;49208;50.874;6.466;2023-02-28T10:21:16;3.95;;;1.73;;
63114;SDS011;49208;50.874;6.466;2023-02-28T10:26:16;6.57;;;1.52;;
63114;SDS011;49208;50.874;6.466;2023-02-28T10:28:42;3.85;;;1.80;;
63114;SDS011;49208;50.874;6.466;2023-02-28T10:31:13;3.80;;;1.73;;
63114;SDS011;49208;50.874;6.466;2023-02-28T10:33:42;8.93;;;2.05;;
63114;SDS011;49208;50.874;6.466;2023-02-28T10:36:08;3.33;;;1.70;;
63114;SDS011;49208;50.874;6.466;2023-02-28T10:38:39;6.85;;;2.05;;
63114;SDS011;49208;50.874;6.466;2023-02-28T10:41:15;5.50;;;1.83;;
63114;SDS011;49208;50.874;6.466;2023-02-28T10:43:42;6.75;;;2.22;;
63114;SDS011;49208;50.874;6.466;2023-02-28T10:48:41;5.97;;;2.28;;
63114;SDS011;49208;50.874;6.466;2023-02-28T10:51:15;4.50;;;1.70;;
63114;SDS011;49208;50.874;6.466;2023-02-28T11:03:54;5.80;;;2.25;;
63114;SDS011;49208;50.874;6.466;2023-02-28T11:06:23;4.38;;;1.83;;
63114;SDS011;49208;50.874;6.466;2023-02-28T11:08:53;4.32;;;2.05;;
63114;SDS011;49208;50.874;6.466;2023-02-28T11:11:22;3.83;;;2.03;;
63114;SDS011;49208;50.874;6.466;2023-02-28T11:13:51;10.77;;;2.53;;
63114;SDS011;49208;50.874;6.466;2023-02-28T11:16:19;3.75;;;1.92;;
63114;SDS011;49208;50.874;6.466;2023-02-28T11:18:49;4.22;;;1.60;;
63114;SDS011;49208;50.874;6.466;2023-02-28T11:23:55;4.67;;;2.00;;
63114;SDS011;49208;50.874;6.466;2023-02-28T11:26:38;4.57;;;2.22;;
63114;SDS011;49208;50.874;6.466;2023-02-28T11:29:11;6.45;;;2.33;;
63114;SDS011;49208;50.874;6.466;2023-02-28T11:34:41;4.10;;;1.83;;
63114;SDS011;49208;50.874;6.466;2023-02-28T11:37:18;5.05;;;2.25;;
63114;SDS011;49208;50.874;6.466;2023-02-28T11:39:45;4.03;;;1.80;;
63114;SDS011;49208;50.874;6.466;2023-02-28T11:44:58;4.00;;;2.30;;
63114;SDS011;49208;50.874;6.466;2023-02-28T11:47:48;4.43;;;1.95;;
63114;SDS011;49208;50.874;6.466;2023-02-28T11:53:18;5.50;;;1.98;;
63114;SDS011;49208;50.874;6.466;2023-02-28T12:07:18;3.65;;;1.80;;
63114;SDS011;49208;50.874;6.466;2023-02-28T12:12:46;4.32;;;2.40;;
63114;SDS011;49208;50.874;6.466;2023-02-28T12:17:55;5.03;;;2.45;;
63114;SDS011;49208;50.874;6.466;2023-02-28T12:23:18;4.90;;;2.42;;
63114;SDS011;49208;50.874;6.466;2023-02-28T12:26:00;4.35;;;2.47;;
63114;SDS011;49208;50.874;6.466;2023-02-28T12:28:34;5.40;;;2.25;;
63114;SDS011;49208;50.874;6.466;2023-02-28T12:31:14;6.55;;;2.90;;
63114;SDS011;49208;50.874;6.466;2023-02-28T12:33:46;5.88;;;2.60;;
63114;SDS011;49208;50.874;6.466;2023-02-28T12:36:17;4.18;;;2.20;;
63114;SDS011;49208;50.874;6.466;2023-02-28T12:41:48;4.10;;;2.08;;
63114;SDS011;49208;50.874;6.466;2023-02-28T12:46:47;5.20;;;2.40;;
63114;SDS011;49208;50.874;6.466;2023-02-28T12:49:17;4.20;;;2.30;;
63114;SDS011;49208;50.874;6.466;2023-02-28T12:51:47;8.05;;;2.75;;
63114;SDS011;49208;50.874;6.466;2023-02-28T12:56:49;5.95;;;3.08;;
63114;SDS011;49208;50.874;6.466;2023-02-28T12:59:22;5.82;;;3.25;;
63114;SDS011;49208;50.874;6.466;2023-02-28T13:10:16;6.40;;;3.00;;
63114;SDS011;49208;50.874;6.466;2023-02-28T13:12:50;5.15;;;2.67;;
63114;SDS011;49208;50.874;6.466;2023-02-28T13:17:50;5.65;;;2.45;;
63114;SDS011;49208;50.874;6.466;2023-02-28T13:20:18;7.72;;;2.97;;
63114;SDS011;49208;50.874;6.466;2023-02-28T13:22:49;5.40;;;2.97;;
63114;SDS011;49208;50.874;6.466;2023-02-28T13:27:47;6.75;;;2.90;;
63114;SDS011;49208;50.874;6.466;2023-02-28T13:38:42;5.30;;;2.70;;
63114;SDS011;49208;50.874;6.466;2023-02-28T14:05:24;6.05;;;3.20;;
63114;SDS011;49208;50.874;6.466;2023-02-28T14:07:58;6.88;;;2.88;;
63114;SDS011;49208;50.874;6.466;2023-02-28T14:10:30;5.25;;;3.08;;
63114;SDS011;49208;50.874;6.466;2023-02-28T14:18:16;4.60;;;2.90;;
63114;SDS011;49208;50.874;6.466;2023-02-28T14:20:45;5.18;;;2.90;;
63114;SDS011;49208;50.874;6.466;2023-02-28T14:32:13;4.32;;;2.78;;
63114;SDS011;49208;50.874;6.466;2023-02-28T14:34:53;7.70;;;4.22;;
63114;SDS011;49208;50.874;6.466;2023-02-28T14:37:20;7.57;;;3.55;;
63114;SDS011;49208;50.874;6.466;2023-02-28T14:39:52;6.20;;;3.10;;
63114;SDS011;49208;50.874;6.466;2023-02-28T14:42:28;5.65;;;3.08;;
63114;SDS011;49208;50.874;6.466;2023-02-28T14:44:54;6.90;;;3.20;;
63114;SDS011;49208;50.874;6.466;2023-02-28T14:47:21;5.90;;;3.30;;
63114;SDS011;49208;50.874;6.466;2023-02-28T14:49:50;5.40;;;3.38;;
63114;SDS011;49208;50.874;6.466;2023-02-28T14:54:58;6.72;;;3.45;;
63114;SDS011;49208;50.874;6.466;2023-02-28T14:57:27;6.75;;;3.47;;
63114;SDS011;49208;50.874;6.466;2023-02-28T14:59:58;5.32;;;3.20;;
63114;SDS011;49208;50.874;6.466;2023-02-28T15:02:35;6.30;;;3.13;;
63114;SDS011;49208;50.874;6.466;2023-02-28T15:07:43;5.68;;;2.92;;
63114;SDS011;49208;50.874;6.466;2023-02-28T15:10:10;5.80;;;3.40;;
63114;SDS011;49208;50.874;6.466;2023-02-28T15:12:41;8.65;;;3.60;;
63114;SDS011;49208;50.874;6.466;2023-02-28T15:15:17;5.78;;;3.47;;
63114;SDS011;49208;50.874;6.466;2023-02-28T15:17:48;5.55;;;3.40;;
63114;SDS011;49208;50.874;6.466;2023-02-28T15:20:17;5.63;;;3.08;;
63114;SDS011;49208;50.874;6.466;2023-02-28T15:22:44;5.97;;;2.88;;
63114;SDS011;49208;50.874;6.466;2023-02-28T15:25:13;7.18;;;3.13;;
63114;SDS011;49208;50.874;6.466;2023-02-28T15:27:46;6.07;;;3.20;;
63114;SDS011;49208;50.874;6.466;2023-02-28T15:30:28;5.18;;;3.00;;
63114;SDS011;49208;50.874;6.466;2023-02-28T15:33:02;9.38;;;3.72;;
63114;SDS011;49208;50.874;6.466;2023-02-28T15:35:44;6.43;;;3.15;;
63114;SDS011;49208;50.874;6.466;2023-02-28T15:38:43;7.72;;;3.85;;
63114;SDS011;49208;50.874;6.466;2023-02-28T15:41:01;5.45;;;2.88;;
63114;SDS011;49208;50.874;6.466;2023-02-28T15:43:36;11.85;;;3.90;;
63114;SDS011;49208;50.874;6.466;2023-02-28T15:46:05;7.82;;;3.97;;
63114;SDS011;49208;50.874;6.466;2023-02-28T15:48:37;5.85;;;2.83;;
63114;SDS011;49208;50.874;6.466;2023-02-28T15:53:41;7.22;;;3.63;;
63114;SDS011;49208;50.874;6.466;2023-02-28T15:56:29;6.38;;;3.10;;
63114;SDS011;49208;50.874;6.466;2023-02-28T15:58:57;8.95;;;3.13;;
63114;SDS011;49208;50.874;6.466;2023-02-28T16:01:27;5.88;;;2.97;;
63114;SDS011;49208;50.874;6.466;2023-02-28T16:04:11;6.10;;;2.97;;
63114;SDS011;49208;50.874;6.466;2023-02-28T16:06:40;4.70;;;2.72;;
63114;SDS011;49208;50.874;6.466;2023-02-28T16:09:16;6.70;;;2.85;;
63114;SDS011;49208;50.874;6.466;2023-02-28T16:11:42;5.45;;;3.15;;
63114;SDS011;49208;50.874;6.466;2023-02-28T16:14:22;7.47;;;2.83;;
63114;SDS011;49208;50.874;6.466;2023-02-28T16:16:51;7.53;;;3.42;;
63114;SDS011;49208;50.874;6.466;2023-02-28T16:19:18;6.70;;;3.00;;
63114;SDS011;49208;50.874;6.466;2023-02-28T16:21:44;7.68;;;3.95;;
63114;SDS011;49208;50.874;6.466;2023-02-28T16:24:11;5.78;;;3.30;;
63114;SDS011;49208;50.874;6.466;2023-02-28T16:26:38;6.13;;;3.45;;
63114;SDS011;49208;50.874;6.466;2023-02-28T16:29:06;9.68;;;3.70;;
63114;SDS011;49208;50.874;6.466;2023-02-28T16:31:34;6.32;;;3.28;;
63114;SDS011;49208;50.874;6.466;2023-02-28T16:34:02;9.30;;;4.13;;
63114;SDS011;49208;50.874;6.466;2023-02-28T16:36:28;7.03;;;3.47;;
63114;SDS011;49208;50.874;6.466;2023-02-28T16:38:54;6.28;;;3.33;;
63114;SDS011;49208;50.874;6.466;2023-02-28T16:41:20;5.95;;;3.15;;
63114;SDS011;49208;50.874;6.466;2023-02-28T16:43:50;4.85;;;3.25;;
63114;SDS011;49208;50.874;6.466;2023-02-28T16:46:17;6.95;;;3.55;;
63114;SDS011;49208;50.874;6.466;2023-02-28T16:48:45;6.45;;;3.60;;
63114;SDS011;49208;50.874;6.466;2023-02-28T16:51:11;4.93;;;3.17;;
63114;SDS011;49208;50.874;6.466;2023-02-28T16:53:38;6.60;;;3.40;;
63114;SDS011;49208;50.874;6.466;2023-02-28T16:56:04;7.18;;;3.45;;
63114;SDS011;49208;50.874;6.466;2023-02-28T17:01:00;6.35;;;3.20;;
63114;SDS011;49208;50.874;6.466;2023-02-28T17:03:27;8.45;;;3.20;;
63114;SDS011;49208;50.874;6.466;2023-02-28T17:05:53;5.05;;;2.90;;
63114;SDS011;49208;50.874;6.466;2023-02-28T17:08:19;9.75;;;3.25;;
63114;SDS011;49208;50.874;6.466;2023-02-28T17:10:45;7.07;;;3.17;;
63114;SDS011;49208;50.874;6.466;2023-02-28T17:13:10;6.03;;;2.53;;
63114;SDS011;49208;50.874;6.466;2023-02-28T17:15:36;6.68;;;3.17;;
63114;SDS011;49208;50.874;6.466;2023-02-28T17:18:02;12.32;;;3.75;;
63114;SDS011;49208;50.874;6.466;2023-02-28T17:20:28;8.55;;;3.80;;
63114;SDS011;49208;50.874;6.466;2023-02-28T17:22:54;8.25;;;3.42;;
63114;SDS011;49208;50.874;6.466;2023-02-28T17:25:21;7.18;;;3.00;;
63114;SDS011;49208;50.874;6.466;2023-02-28T17:27:47;7.38;;;4.40;;
63114;SDS011;49208;50.874;6.466;2023-02-28T17:30:16;7.10;;;3.67;;
63114;SDS011;49208;50.874;6.466;2023-02-28T17:32:42;6.45;;;3.28;;
63114;SDS011;49208;50.874;6.466;2023-02-28T17:35:08;6.53;;;3.50;;
63114;SDS011;49208;50.874;6.466;2023-02-28T17:37:34;6.60;;;3.08;;
63114;SDS011;49208;50.874;6.466;2023-02-28T17:40:00;8.27;;;2.78;;
63114;SDS011;49208;50.874;6.466;2023-02-28T17:42:26;7.43;;;3.40;;
63114;SDS011;49208;50.874;6.466;2023-02-28T17:44:51;6.75;;;3.35;;
63114;SDS011;49208;50.874;6.466;2023-02-28T17:47:17;7.63;;;3.33;;
63114;SDS011;49208;50.874;6.466;2023-02-28T17:49:42;7.63;;;3.17;;
63114;SDS011;49208;50.874;6.466;2023-02-28T17:52:08;6.38;;;3.78;;
63114;SDS011;49208;50.874;6.466;2023-02-28T17:54:33;5.97;;;3.83;;
63114;SDS011;49208;50.874;6.466;2023-02-28T17:56:58;11.32;;;5.35;;
63114;SDS011;49208;50.874;6.466;2023-02-28T17:59:24;9.50;;;4.03;;
63114;SDS011;49208;50.874;6.466;2023-02-28T18:01:49;6.57;;;3.60;;
63114;SDS011;49208;50.874;6.466;2023-02-28T18:04:15;6.30;;;3.85;;
63114;SDS011;49208;50.874;6.466;2023-02-28T18:06:41;6.25;;;3.72;;
63114;SDS011;49208;50.874;6.466;2023-02-28T18:09:30;7.90;;;4.00;;
63114;SDS011;49208;50.874;6.466;2023-02-28T18:11:55;7.72;;;4.70;;
63114;SDS011;49208;50.874;6.466;2023-02-28T18:14:22;7.28;;;4.40;;
63114;SDS011;49208;50.874;6.466;2023-02-28T18:16:50;8.05;;;4.10;;
63114;SDS011;49208;50.874;6.466;2023-02-28T18:19:16;9.20;;;4.93;;
63114;SDS011;49208;50.874;6.466;2023-02-28T18:21:46;7.85;;;5.45;;
63114;SDS011;49208;50.874;6.466;2023-02-28T18:24:14;6.72;;;4.38;;
63114;SDS011;49208;50.874;6.466;2023-02-28T18:26:40;8.65;;;4.50;;
63114;SDS011;49208;50.874;6.466;2023-02-28T18:29:06;7.43;;;4.88;;
63114;SDS011;49208;50.874;6.466;2023-02-28T18:31:32;9.45;;;4.60;;
63114;SDS011;49208;50.874;6.466;2023-02-28T18:33:58;8.05;;;4.45;;
63114;SDS011;49208;50.874;6.466;2023-02-28T18:36:25;7.78;;;5.05;;
63114;SDS011;49208;50.874;6.466;2023-02-28T18:38:52;7.95;;;4.22;;
63114;SDS011;49208;50.874;6.466;2023-02-28T18:41:18;9.95;;;5.10;;
63114;SDS011;49208;50.874;6.466;2023-02-28T18:43:45;11.77;;;5.82;;
63114;SDS011;49208;50.874;6.466;2023-02-28T18:46:12;9.13;;;6.03;;
63114;SDS011;49208;50.874;6.466;2023-02-28T18:48:40;11.70;;;4.63;;
63114;SDS011;49208;50.874;6.466;2023-02-28T18:51:08;10.10;;;5.38;;
63114;SDS011;49208;50.874;6.466;2023-02-28T18:53:44;10.55;;;4.75;;
63114;SDS011;49208;50.874;6.466;2023-02-28T18:56:11;11.50;;;5.97;;
63114;SDS011;49208;50.874;6.466;2023-02-28T18:58:39;8.68;;;5.43;;
63114;SDS011;49208;50.874;6.466;2023-02-28T19:01:11;10.43;;;6.47;;
63114;SDS011;49208;50.874;6.466;2023-02-28T19:03:45;9.20;;;4.75;;
63114;SDS011;49208;50.874;6.466;2023-02-28T19:06:12;7.80;;;4.22;;
63114;SDS011;49208;50.874;6.466;2023-02-28T19:08:38;9.40;;;4.95;;
63114;SDS011;49208;50.874;6.466;2023-02-28T19:11:07;12.38;;;5.07;;
63114;SDS011;49208;50.874;6.466;2023-02-28T19:13:40;8.77;;;4.70;;
63114;SDS011;49208;50.874;6.466;2023-02-28T19:16:06;10.40;;;5.45;;
63114;SDS011;49208;50.874;6.466;2023-02-28T19:18:33;11.47;;;5.27;;
63114;SDS011;49208;50.874;6.466;2023-02-28T19:20:59;9.40;;;4.93;;
63114;SDS011;49208;50.874;6.466;2023-02-28T19:23:25;9.63;;;4.50;;
63114;SDS011;49208;50.874;6.466;2023-02-28T19:25:51;7.80;;;4.78;;
63114;SDS011;49208;50.874;6.466;2023-02-28T19:28:16;11.73;;;4.88;;
63114;SDS011;49208;50.874;6.466;2023-02-28T19:30:48;6.55;;;4.38;;
63114;SDS011;49208;50.874;6.466;2023-02-28T19:33:17;8.80;;;4.72;;
63114;SDS011;49208;50.874;6.466;2023-02-28T19:35:43;8.38;;;5.05;;
63114;SDS011;49208;50.874;6.466;2023-02-28T19:38:09;10.85;;;4.32;;
63114;SDS011;49208;50.874;6.466;2023-02-28T19:40:34;7.30;;;4.80;;
63114;SDS011;49208;50.874;6.466;2023-02-28T19:43:00;8.57;;;4.65;;
63114;SDS011;49208;50.874;6.466;2023-02-28T19:45:26;7.90;;;5.07;;
63114;SDS011;49208;50.874;6.466;2023-02-28T19:47:53;8.20;;;4.50;;
63114;SDS011;49208;50.874;6.466;2023-02-28T19:50:19;7.85;;;4.75;;
63114;SDS011;49208;50.874;6.466;2023-02-28T19:52:45;8.18;;;4.75;;
63114;SDS011;49208;50.874;6.466;2023-02-28T19:55:13;7.85;;;4.57;;
63114;SDS011;49208;50.874;6.466;2023-02-28T19:57:39;8.65;;;5.07;;
63114;SDS011;49208;50.874;6.466;2023-02-28T20:00:05;9.93;;;5.63;;
63114;SDS011;49208;50.874;6.466;2023-02-28T20:02:31;7.50;;;4.80;;
63114;SDS011;49208;50.874;6.466;2023-02-28T20:04:57;14.23;;;5.13;;
63114;SDS011;49208;50.874;6.466;2023-02-28T20:07:24;8.15;;;4.57;;
63114;SDS011;49208;50.874;6.466;2023-02-28T20:09:49;13.13;;;5.55;;
63114;SDS011;49208;50.874;6.466;2023-02-28T20:12:15;8.98;;;5.05;;
63114;SDS011;49208;50.874;6.466;2023-02-28T20:14:41;8.52;;;4.57;;
63114;SDS011;49208;50.874;6.466;2023-02-28T20:17:07;10.05;;;4.75;;
63114;SDS011;49208;50.874;6.466;2023-02-28T20:19:33;10.82;;;5.28;;
63114;SDS011;49208;50.874;6.466;2023-02-28T20:21:58;8.90;;;4.53;;
63114;SDS011;49208;50.874;6.466;2023-02-28T20:24:26;8.13;;;5.10;;
63114;SDS011;49208;50.874;6.466;2023-02-28T20:26:52;8.45;;;5.20;;
63114;SDS011;49208;50.874;6.466;2023-02-28T20:29:17;11.38;;;5.57;;
63114;SDS011;49208;50.874;6.466;2023-02-28T20:31:43;9.20;;;5.05;;
63114;SDS011;49208;50.874;6.466;2023-02-28T20:34:08;10.48;;;6.50;;
63114;SDS011;49208;50.874;6.466;2023-02-28T20:36:34;9.02;;;5.15;;
63114;SDS011;49208;50.874;6.466;2023-02-28T20:38:59;10.77;;;4.97;;
63114;SDS011;49208;50.874;6.466;2023-02-28T20:41:25;8.70;;;5.32;;
63114;SDS011;49208;50.874;6.466;2023-02-28T20:43:54;9.65;;;5.03;;
63114;SDS011;49208;50.874;6.466;2023-02-28T20:46:22;10.73;;;5.35;;
63114;SDS011;49208;50.874;6.466;2023-02-28T20:48:49;7.83;;;4.50;;
63114;SDS011;49208;50.874;6.466;2023-02-28T20:51:14;9.27;;;5.03;;
63114;SDS011;49208;50.874;6.466;2023-02-28T20:53:40;10.43;;;5.38;;
63114;SDS011;49208;50.874;6.466;2023-02-28T20:56:07;10.77;;;5.57;;
63114;SDS011;49208;50.874;6.466;2023-02-28T20:58:37;9.27;;;5.22;;
63114;SDS011;49208;50.874;6.466;2023-02-28T21:03:37;11.77;;;5.55;;
63114;SDS011;49208;50.874;6.466;2023-02-28T21:06:03;10.43;;;5.30;;
63114;SDS011;49208;50.874;6.466;2023-02-28T21:08:29;9.57;;;5.07;;
63114;SDS011;49208;50.874;6.466;2023-02-28T21:10:55;10.25;;;5.53;;
63114;SDS011;49208;50.874;6.466;2023-02-28T21:13:21;9.15;;;4.60;;
63114;SDS011;49208;50.874;6.466;2023-02-28T21:15:46;9.55;;;5.50;;
63114;SDS011;49208;50.874;6.466;2023-02-28T21:18:12;12.60;;;5.03;;
63114;SDS011;49208;50.874;6.466;2023-02-28T21:20:37;10.25;;;5.05;;
63114;SDS011;49208;50.874;6.466;2023-02-28T21:23:02;9.75;;;5.03;;
63114;SDS011;49208;50.874;6.466;2023-02-28T21:25:28;9.32;;;5.35;;
63114;SDS011;49208;50.874;6.466;2023-02-28T21:27:54;10.23;;;5.13;;
63114;SDS011;49208;50.874;6.466;2023-02-28T21:30:20;10.50;;;5.22;;
63114;SDS011;49208;50.874;6.466;2023-02-28T21:32:46;9.10;;;4.35;;
63114;SDS011;49208;50.874;6.466;2023-02-28T21:35:12;10.30;;;5.68;;
63114;SDS011;49208;50.874;6.466;2023-02-28T21:37:37;10.25;;;5.47;;
63114;SDS011;49208;50.874;6.466;2023-02-28T21:40:03;10.45;;;5.97;;
63114;SDS011;49208;50.874;6.466;2023-02-28T21:42:28;9.57;;;5.60;;
63114;SDS011;49208;50.874;6.466;2023-02-28T21:44:54;9.27;;;5.32;;
63114;SDS011;49208;50.874;6.466;2023-02-28T21:47:21;6.88;;;4.80;;
63114;SDS011;49208;50.874;6.466;2023-02-28T21:49:48;10.02;;;5.50;;
63114;SDS011;49208;50.874;6.466;2023-02-28T21:52:13;9.95;;;5.13;;
63114;SDS011;49208;50.874;6.466;2023-02-28T21:54:38;8.50;;;5.50;;
63114;SDS011;49208;50.874;6.466;2023-02-28T21:57:04;8.98;;;5.80;;
63114;SDS011;49208;50.874;6.466;2023-02-28T21:59:29;12.13;;;5.75;;
63114;SDS011;49208;50.874;6.466;2023-02-28T22:01:55;10.98;;;5.50;;
63114;SDS011;49208;50.874;6.466;2023-02-28T22:04:20;16.60;;;5.90;;
63114;SDS011;49208;50.874;6.466;2023-02-28T22:06:47;10.50;;;5.93;;
63114;SDS011;49208;50.874;6.466;2023-02-28T22:09:13;12.82;;;5.95;;
63114;SDS011;49208;50.874;6.466;2023-02-28T22:11:39;12.07;;;6.25;;
63114;SDS011;49208;50.874;6.466;2023-02-28T22:14:04;13.35;;;6.43;;
63114;SDS011;49208;50.874;6.466;2023-02-28T22:16:31;13.95;;;6.00;;
63114;SDS011;49208;50.874;6.466;2023-02-28T22:18:58;17.38;;;7.75;;
63114;SDS011;49208;50.874;6.466;2023-02-28T22:21:24;11.07;;;7.03;;
63114;SDS011;49208;50.874;6.466;2023-02-28T22:23:50;13.35;;;6.65;;
63114;SDS011;49208;50.874;6.466;2023-02-28T22:26:19;14.95;;;6.53;;
63114;SDS011;49208;50.874;6.466;2023-02-28T22:28:46;14.98;;;6.47;;
63114;SDS011;49208;50.874;6.466;2023-02-28T22:31:13;14.65;;;5.60;;
63114;SDS011;49208;50.874;6.466;2023-02-28T22:33:44;11.82;;;6.32;;
63114;SDS011;49208;50.874;6.466;2023-02-28T22:36:10;12.18;;;5.97;;
63114;SDS011;49208;50.874;6.466;2023-02-28T22:38:38;11.18;;;5.95;;
63114;SDS011;49208;50.874;6.466;2023-02-28T22:41:04;11.02;;;5.80;;
63114;SDS011;49208;50.874;6.466;2023-02-28T22:43:30;10.02;;;6.28;;
63114;SDS011;49208;50.874;6.466;2023-02-28T22:45:59;11.27;;;6.68;;
63114;SDS011;49208;50.874;6.466;2023-02-28T22:48:26;10.15;;;6.15;;
63114;SDS011;49208;50.874;6.466;2023-02-28T22:50:59;11.15;;;6.93;;
63114;SDS011;49208;50.874;6.466;2023-02-28T22:53:26;8.75;;;5.45;;
63114;SDS011;49208;50.874;6.466;2023-02-28T22:55:54;11.20;;;5.93;;
63114;SDS011;49208;50.874;6.466;2023-02-28T22:58:20;11.40;;;6.20;;
